sensor_id;sensor_type;location;lat;lon;timestamp;P1;durP1;ratioP1;P2;durP2;ratioP2
61017;SDS011;48171;51.550;5.434;2023-02-15T00:01:05;62.53;;;23.98;;
61017;SDS011;48171;51.550;5.434;2023-02-15T00:03:35;59.53;;;25.75;;
61017;SDS011;48171;51.550;5.434;2023-02-15T00:06:00;69.65;;;28.08;;
61017;SDS011;48171;51.550;5.434;2023-02-15T00:08:26;60.83;;;25.30;;
61017;SDS011;48171;51.550;5.434;2023-02-15T00:10:52;69.68;;;26.65;;
61017;SDS011;48171;51.550;5.434;2023-02-15T00:13:17;65.32;;;26.25;;
61017;SDS011;48171;51.550;5.434;2023-02-15T00:15:43;63.88;;;25.85;;
61017;SDS011;48171;51.550;5.434;2023-02-15T00:18:08;75.28;;;28.38;;
61017;SDS011;48171;51.550;5.434;2023-02-15T00:20:34;76.88;;;28.02;;
61017;SDS011;48171;51.550;5.434;2023-02-15T00:23:00;62.60;;;26.17;;
61017;SDS011;48171;51.550;5.434;2023-02-15T00:25:25;66.80;;;25.33;;
61017;SDS011;48171;51.550;5.434;2023-02-15T00:27:50;68.55;;;27.45;;
61017;SDS011;48171;51.550;5.434;2023-02-15T00:30:16;61.85;;;26.27;;
61017;SDS011;48171;51.550;5.434;2023-02-15T00:32:41;58.95;;;24.73;;
61017;SDS011;48171;51.550;5.434;2023-02-15T00:35:06;60.85;;;23.95;;
61017;SDS011;48171;51.550;5.434;2023-02-15T00:37:32;68.53;;;27.40;;
61017;SDS011;48171;51.550;5.434;2023-02-15T00:39:57;64.15;;;26.85;;
61017;SDS011;48171;51.550;5.434;2023-02-15T00:42:23;65.93;;;28.38;;
61017;SDS011;48171;51.550;5.434;2023-02-15T00:44:48;68.65;;;27.50;;
61017;SDS011;48171;51.550;5.434;2023-02-15T00:47:13;71.00;;;27.60;;
61017;SDS011;48171;51.550;5.434;2023-02-15T00:49:39;62.35;;;26.60;;
61017;SDS011;48171;51.550;5.434;2023-02-15T00:52:04;64.65;;;28.20;;
61017;SDS011;48171;51.550;5.434;2023-02-15T00:54:29;65.93;;;26.60;;
61017;SDS011;48171;51.550;5.434;2023-02-15T00:56:54;68.82;;;27.52;;
61017;SDS011;48171;51.550;5.434;2023-02-15T00:59:20;72.15;;;27.92;;
61017;SDS011;48171;51.550;5.434;2023-02-15T01:01:45;74.95;;;28.00;;
61017;SDS011;48171;51.550;5.434;2023-02-15T01:04:10;73.35;;;28.25;;
61017;SDS011;48171;51.550;5.434;2023-02-15T01:06:35;71.40;;;28.60;;
61017;SDS011;48171;51.550;5.434;2023-02-15T01:09:01;69.20;;;28.52;;
61017;SDS011;48171;51.550;5.434;2023-02-15T01:11:26;70.55;;;28.13;;
61017;SDS011;48171;51.550;5.434;2023-02-15T01:13:53;70.22;;;27.90;;
61017;SDS011;48171;51.550;5.434;2023-02-15T01:16:20;72.50;;;27.73;;
61017;SDS011;48171;51.550;5.434;2023-02-15T01:18:46;69.35;;;28.73;;
61017;SDS011;48171;51.550;5.434;2023-02-15T01:21:13;74.22;;;29.30;;
61017;SDS011;48171;51.550;5.434;2023-02-15T01:23:43;70.22;;;28.67;;
61017;SDS011;48171;51.550;5.434;2023-02-15T01:26:09;68.25;;;28.77;;
61017;SDS011;48171;51.550;5.434;2023-02-15T01:28:35;66.60;;;26.42;;
61017;SDS011;48171;51.550;5.434;2023-02-15T01:31:04;66.72;;;27.45;;
61017;SDS011;48171;51.550;5.434;2023-02-15T01:35:57;67.90;;;26.42;;
61017;SDS011;48171;51.550;5.434;2023-02-15T01:38:23;65.13;;;26.85;;
61017;SDS011;48171;51.550;5.434;2023-02-15T01:40:51;67.75;;;26.85;;
61017;SDS011;48171;51.550;5.434;2023-02-15T01:43:17;69.70;;;26.90;;
61017;SDS011;48171;51.550;5.434;2023-02-15T01:45:43;71.60;;;27.65;;
61017;SDS011;48171;51.550;5.434;2023-02-15T01:48:18;65.38;;;28.00;;
61017;SDS011;48171;51.550;5.434;2023-02-15T01:50:50;67.88;;;26.50;;
61017;SDS011;48171;51.550;5.434;2023-02-15T01:53:31;68.07;;;26.38;;
61017;SDS011;48171;51.550;5.434;2023-02-15T01:56:03;58.47;;;24.80;;
61017;SDS011;48171;51.550;5.434;2023-02-15T01:58:32;61.90;;;26.08;;
61017;SDS011;48171;51.550;5.434;2023-02-15T02:00:59;58.47;;;24.83;;
61017;SDS011;48171;51.550;5.434;2023-02-15T02:03:36;63.20;;;25.77;;
61017;SDS011;48171;51.550;5.434;2023-02-15T02:06:08;66.80;;;25.00;;
61017;SDS011;48171;51.550;5.434;2023-02-15T02:08:34;64.35;;;25.40;;
61017;SDS011;48171;51.550;5.434;2023-02-15T02:11:00;67.32;;;27.45;;
61017;SDS011;48171;51.550;5.434;2023-02-15T02:13:25;67.45;;;25.77;;
61017;SDS011;48171;51.550;5.434;2023-02-15T02:15:57;64.00;;;25.88;;
61017;SDS011;48171;51.550;5.434;2023-02-15T02:23:46;61.80;;;25.38;;
61017;SDS011;48171;51.550;5.434;2023-02-15T02:26:33;65.07;;;24.10;;
61017;SDS011;48171;51.550;5.434;2023-02-15T02:34:55;59.90;;;23.75;;
61017;SDS011;48171;51.550;5.434;2023-02-15T02:37:56;53.78;;;23.17;;
61017;SDS011;48171;51.550;5.434;2023-02-15T02:46:02;60.72;;;23.92;;
61017;SDS011;48171;51.550;5.434;2023-02-15T02:48:34;62.63;;;24.02;;
61017;SDS011;48171;51.550;5.434;2023-02-15T02:51:01;62.63;;;23.92;;
61017;SDS011;48171;51.550;5.434;2023-02-15T02:53:26;68.15;;;24.75;;
61017;SDS011;48171;51.550;5.434;2023-02-15T02:55:56;56.25;;;23.33;;
61017;SDS011;48171;51.550;5.434;2023-02-15T02:58:31;70.63;;;24.52;;
61017;SDS011;48171;51.550;5.434;2023-02-15T03:01:03;63.92;;;24.08;;
61017;SDS011;48171;51.550;5.434;2023-02-15T03:03:34;65.25;;;25.13;;
61017;SDS011;48171;51.550;5.434;2023-02-15T03:06:07;60.38;;;23.50;;
61017;SDS011;48171;51.550;5.434;2023-02-15T03:08:36;71.60;;;24.65;;
61017;SDS011;48171;51.550;5.434;2023-02-15T03:11:06;65.80;;;24.48;;
61017;SDS011;48171;51.550;5.434;2023-02-15T03:13:32;69.22;;;26.33;;
61017;SDS011;48171;51.550;5.434;2023-02-15T03:15:58;59.95;;;25.48;;
61017;SDS011;48171;51.550;5.434;2023-02-15T03:18:49;65.90;;;25.60;;
61017;SDS011;48171;51.550;5.434;2023-02-15T03:21:28;67.57;;;25.88;;
61017;SDS011;48171;51.550;5.434;2023-02-15T03:24:12;67.63;;;25.25;;
61017;SDS011;48171;51.550;5.434;2023-02-15T03:26:42;64.47;;;24.13;;
61017;SDS011;48171;51.550;5.434;2023-02-15T03:29:10;63.45;;;24.45;;
61017;SDS011;48171;51.550;5.434;2023-02-15T03:31:39;68.68;;;25.05;;
61017;SDS011;48171;51.550;5.434;2023-02-15T03:34:10;60.15;;;23.75;;
61017;SDS011;48171;51.550;5.434;2023-02-15T03:41:46;65.97;;;25.30;;
61017;SDS011;48171;51.550;5.434;2023-02-15T03:44:30;63.53;;;24.58;;
61017;SDS011;48171;51.550;5.434;2023-02-15T03:47:04;60.63;;;24.73;;
61017;SDS011;48171;51.550;5.434;2023-02-15T03:49:39;71.15;;;24.90;;
61017;SDS011;48171;51.550;5.434;2023-02-15T03:52:10;58.75;;;23.55;;
61017;SDS011;48171;51.550;5.434;2023-02-15T03:54:38;66.43;;;24.63;;
61017;SDS011;48171;51.550;5.434;2023-02-15T03:57:09;61.90;;;24.88;;
61017;SDS011;48171;51.550;5.434;2023-02-15T03:59:56;62.13;;;25.08;;
61017;SDS011;48171;51.550;5.434;2023-02-15T04:02:45;60.03;;;23.63;;
61017;SDS011;48171;51.550;5.434;2023-02-15T04:05:13;68.80;;;24.65;;
61017;SDS011;48171;51.550;5.434;2023-02-15T04:07:38;65.30;;;25.02;;
61017;SDS011;48171;51.550;5.434;2023-02-15T04:10:03;66.05;;;25.25;;
61017;SDS011;48171;51.550;5.434;2023-02-15T04:12:47;71.10;;;25.10;;
61017;SDS011;48171;51.550;5.434;2023-02-15T04:15:13;60.55;;;25.17;;
61017;SDS011;48171;51.550;5.434;2023-02-15T04:17:56;59.17;;;23.33;;
61017;SDS011;48171;51.550;5.434;2023-02-15T04:20:22;69.72;;;25.23;;
61017;SDS011;48171;51.550;5.434;2023-02-15T04:23:06;61.58;;;23.33;;
61017;SDS011;48171;51.550;5.434;2023-02-15T04:25:50;63.63;;;24.05;;
61017;SDS011;48171;51.550;5.434;2023-02-15T04:28:16;54.55;;;22.45;;
61017;SDS011;48171;51.550;5.434;2023-02-15T04:30:41;60.47;;;22.90;;
61017;SDS011;48171;51.550;5.434;2023-02-15T04:33:06;60.90;;;22.70;;
61017;SDS011;48171;51.550;5.434;2023-02-15T04:35:32;60.05;;;23.77;;
61017;SDS011;48171;51.550;5.434;2023-02-15T04:37:58;52.90;;;21.88;;
61017;SDS011;48171;51.550;5.434;2023-02-15T04:40:23;60.03;;;22.60;;
61017;SDS011;48171;51.550;5.434;2023-02-15T04:42:49;58.88;;;22.48;;
61017;SDS011;48171;51.550;5.434;2023-02-15T04:45:14;51.65;;;21.60;;
61017;SDS011;48171;51.550;5.434;2023-02-15T04:47:40;53.85;;;20.85;;
61017;SDS011;48171;51.550;5.434;2023-02-15T04:50:06;57.58;;;21.88;;
61017;SDS011;48171;51.550;5.434;2023-02-15T04:52:31;59.92;;;23.67;;
61017;SDS011;48171;51.550;5.434;2023-02-15T04:54:57;60.13;;;24.73;;
61017;SDS011;48171;51.550;5.434;2023-02-15T04:57:22;64.13;;;23.80;;
61017;SDS011;48171;51.550;5.434;2023-02-15T04:59:47;60.00;;;23.27;;
61017;SDS011;48171;51.550;5.434;2023-02-15T05:02:13;62.03;;;22.30;;
61017;SDS011;48171;51.550;5.434;2023-02-15T05:04:38;57.55;;;23.13;;
61017;SDS011;48171;51.550;5.434;2023-02-15T05:07:03;63.97;;;23.23;;
61017;SDS011;48171;51.550;5.434;2023-02-15T05:09:29;62.88;;;23.30;;
61017;SDS011;48171;51.550;5.434;2023-02-15T05:11:54;59.55;;;22.60;;
61017;SDS011;48171;51.550;5.434;2023-02-15T05:14:19;61.05;;;23.00;;
61017;SDS011;48171;51.550;5.434;2023-02-15T05:16:45;57.75;;;24.02;;
61017;SDS011;48171;51.550;5.434;2023-02-15T05:19:11;59.65;;;23.80;;
61017;SDS011;48171;51.550;5.434;2023-02-15T05:21:36;56.90;;;23.08;;
61017;SDS011;48171;51.550;5.434;2023-02-15T05:24:01;66.35;;;23.60;;
61017;SDS011;48171;51.550;5.434;2023-02-15T05:26:47;58.03;;;22.88;;
61017;SDS011;48171;51.550;5.434;2023-02-15T05:29:31;58.92;;;21.45;;
61017;SDS011;48171;51.550;5.434;2023-02-15T05:31:56;56.13;;;21.75;;
61017;SDS011;48171;51.550;5.434;2023-02-15T05:34:21;57.05;;;23.05;;
61017;SDS011;48171;51.550;5.434;2023-02-15T05:36:47;62.22;;;22.15;;
61017;SDS011;48171;51.550;5.434;2023-02-15T05:39:12;71.90;;;24.65;;
61017;SDS011;48171;51.550;5.434;2023-02-15T05:41:37;64.63;;;23.88;;
61017;SDS011;48171;51.550;5.434;2023-02-15T05:44:03;64.75;;;23.65;;
61017;SDS011;48171;51.550;5.434;2023-02-15T05:46:28;55.35;;;23.40;;
61017;SDS011;48171;51.550;5.434;2023-02-15T05:48:53;63.50;;;23.38;;
61017;SDS011;48171;51.550;5.434;2023-02-15T05:51:19;62.95;;;23.65;;
61017;SDS011;48171;51.550;5.434;2023-02-15T05:53:44;61.25;;;23.13;;
61017;SDS011;48171;51.550;5.434;2023-02-15T05:56:09;62.00;;;23.98;;
61017;SDS011;48171;51.550;5.434;2023-02-15T05:58:38;68.70;;;25.15;;
61017;SDS011;48171;51.550;5.434;2023-02-15T06:01:15;63.40;;;23.17;;
61017;SDS011;48171;51.550;5.434;2023-02-15T06:03:42;56.53;;;22.60;;
61017;SDS011;48171;51.550;5.434;2023-02-15T06:06:08;56.78;;;21.77;;
61017;SDS011;48171;51.550;5.434;2023-02-15T06:08:34;60.28;;;23.98;;
61017;SDS011;48171;51.550;5.434;2023-02-15T06:11:00;64.32;;;24.58;;
61017;SDS011;48171;51.550;5.434;2023-02-15T06:13:26;55.50;;;22.85;;
61017;SDS011;48171;51.550;5.434;2023-02-15T06:15:51;61.55;;;23.05;;
61017;SDS011;48171;51.550;5.434;2023-02-15T06:18:17;61.35;;;23.67;;
61017;SDS011;48171;51.550;5.434;2023-02-15T06:20:44;68.47;;;23.88;;
61017;SDS011;48171;51.550;5.434;2023-02-15T06:23:10;60.58;;;23.17;;
61017;SDS011;48171;51.550;5.434;2023-02-15T06:25:35;68.22;;;24.52;;
61017;SDS011;48171;51.550;5.434;2023-02-15T06:28:01;63.08;;;24.25;;
61017;SDS011;48171;51.550;5.434;2023-02-15T06:30:26;58.28;;;22.20;;
61017;SDS011;48171;51.550;5.434;2023-02-15T06:32:51;54.72;;;22.58;;
61017;SDS011;48171;51.550;5.434;2023-02-15T06:35:16;60.97;;;22.67;;
61017;SDS011;48171;51.550;5.434;2023-02-15T06:37:42;67.45;;;22.38;;
61017;SDS011;48171;51.550;5.434;2023-02-15T06:40:10;62.88;;;21.40;;
61017;SDS011;48171;51.550;5.434;2023-02-15T06:42:36;63.60;;;22.63;;
61017;SDS011;48171;51.550;5.434;2023-02-15T06:45:01;61.35;;;22.60;;
61017;SDS011;48171;51.550;5.434;2023-02-15T06:47:26;57.33;;;21.88;;
61017;SDS011;48171;51.550;5.434;2023-02-15T06:49:52;67.40;;;23.65;;
61017;SDS011;48171;51.550;5.434;2023-02-15T06:52:17;53.45;;;20.52;;
61017;SDS011;48171;51.550;5.434;2023-02-15T06:54:42;62.88;;;23.42;;
61017;SDS011;48171;51.550;5.434;2023-02-15T06:57:07;62.95;;;24.17;;
61017;SDS011;48171;51.550;5.434;2023-02-15T06:59:34;66.80;;;24.92;;
61017;SDS011;48171;51.550;5.434;2023-02-15T07:01:59;59.15;;;22.77;;
61017;SDS011;48171;51.550;5.434;2023-02-15T07:04:25;61.75;;;24.55;;
61017;SDS011;48171;51.550;5.434;2023-02-15T07:06:50;70.30;;;24.33;;
61017;SDS011;48171;51.550;5.434;2023-02-15T07:09:15;66.43;;;22.77;;
61017;SDS011;48171;51.550;5.434;2023-02-15T07:11:41;61.85;;;22.73;;
61017;SDS011;48171;51.550;5.434;2023-02-15T07:14:25;70.18;;;23.30;;
61017;SDS011;48171;51.550;5.434;2023-02-15T07:16:50;69.00;;;25.95;;
61017;SDS011;48171;51.550;5.434;2023-02-15T07:19:15;71.18;;;25.20;;
61017;SDS011;48171;51.550;5.434;2023-02-15T07:21:41;77.55;;;26.77;;
61017;SDS011;48171;51.550;5.434;2023-02-15T07:24:06;73.85;;;26.35;;
61017;SDS011;48171;51.550;5.434;2023-02-15T07:26:32;72.90;;;26.38;;
61017;SDS011;48171;51.550;5.434;2023-02-15T07:28:58;70.88;;;26.70;;
61017;SDS011;48171;51.550;5.434;2023-02-15T07:31:23;74.15;;;26.73;;
61017;SDS011;48171;51.550;5.434;2023-02-15T07:33:48;85.05;;;27.95;;
61017;SDS011;48171;51.550;5.434;2023-02-15T07:36:14;87.63;;;28.90;;
61017;SDS011;48171;51.550;5.434;2023-02-15T07:38:40;74.25;;;27.58;;
61017;SDS011;48171;51.550;5.434;2023-02-15T07:41:09;81.07;;;27.73;;
61017;SDS011;48171;51.550;5.434;2023-02-15T07:43:38;78.60;;;29.73;;
61017;SDS011;48171;51.550;5.434;2023-02-15T07:46:09;81.13;;;28.33;;
61017;SDS011;48171;51.550;5.434;2023-02-15T07:48:36;75.30;;;28.77;;
61017;SDS011;48171;51.550;5.434;2023-02-15T07:51:03;76.75;;;27.75;;
61017;SDS011;48171;51.550;5.434;2023-02-15T07:53:33;76.22;;;28.15;;
61017;SDS011;48171;51.550;5.434;2023-02-15T07:56:00;73.55;;;27.42;;
61017;SDS011;48171;51.550;5.434;2023-02-15T07:58:27;79.05;;;28.17;;
61017;SDS011;48171;51.550;5.434;2023-02-15T08:01:11;77.68;;;27.30;;
61017;SDS011;48171;51.550;5.434;2023-02-15T08:03:36;81.50;;;29.42;;
61017;SDS011;48171;51.550;5.434;2023-02-15T08:06:02;77.78;;;28.55;;
61017;SDS011;48171;51.550;5.434;2023-02-15T08:08:27;73.45;;;28.08;;
61017;SDS011;48171;51.550;5.434;2023-02-15T08:10:59;79.78;;;29.60;;
61017;SDS011;48171;51.550;5.434;2023-02-15T08:13:47;79.93;;;27.92;;
61017;SDS011;48171;51.550;5.434;2023-02-15T08:16:22;83.05;;;30.80;;
61017;SDS011;48171;51.550;5.434;2023-02-15T08:18:59;85.43;;;29.35;;
61017;SDS011;48171;51.550;5.434;2023-02-15T08:21:27;84.78;;;30.20;;
61017;SDS011;48171;51.550;5.434;2023-02-15T08:23:53;85.30;;;29.73;;
61017;SDS011;48171;51.550;5.434;2023-02-15T08:26:20;82.50;;;31.75;;
61017;SDS011;48171;51.550;5.434;2023-02-15T08:28:46;84.22;;;32.78;;
61017;SDS011;48171;51.550;5.434;2023-02-15T08:31:12;89.55;;;31.23;;
61017;SDS011;48171;51.550;5.434;2023-02-15T08:33:39;86.55;;;32.22;;
61017;SDS011;48171;51.550;5.434;2023-02-15T08:36:11;88.38;;;31.83;;
61017;SDS011;48171;51.550;5.434;2023-02-15T08:38:38;87.53;;;32.15;;
61017;SDS011;48171;51.550;5.434;2023-02-15T08:41:17;95.53;;;33.75;;
61017;SDS011;48171;51.550;5.434;2023-02-15T08:43:45;94.90;;;34.47;;
61017;SDS011;48171;51.550;5.434;2023-02-15T08:46:12;92.88;;;34.03;;
61017;SDS011;48171;51.550;5.434;2023-02-15T08:48:38;95.10;;;34.20;;
61017;SDS011;48171;51.550;5.434;2023-02-15T08:51:05;91.00;;;34.22;;
61017;SDS011;48171;51.550;5.434;2023-02-15T08:53:33;90.85;;;33.13;;
61017;SDS011;48171;51.550;5.434;2023-02-15T08:55:58;95.53;;;34.30;;
61017;SDS011;48171;51.550;5.434;2023-02-15T08:58:24;92.28;;;33.55;;
61017;SDS011;48171;51.550;5.434;2023-02-15T09:00:50;97.43;;;37.88;;
61017;SDS011;48171;51.550;5.434;2023-02-15T09:03:16;104.57;;;35.70;;
61017;SDS011;48171;51.550;5.434;2023-02-15T09:05:41;97.93;;;35.83;;
61017;SDS011;48171;51.550;5.434;2023-02-15T09:08:07;89.15;;;35.40;;
61017;SDS011;48171;51.550;5.434;2023-02-15T09:10:32;96.78;;;34.83;;
61017;SDS011;48171;51.550;5.434;2023-02-15T09:12:57;100.07;;;37.78;;
61017;SDS011;48171;51.550;5.434;2023-02-15T09:15:23;104.13;;;37.45;;
61017;SDS011;48171;51.550;5.434;2023-02-15T09:17:48;101.10;;;38.03;;
61017;SDS011;48171;51.550;5.434;2023-02-15T09:20:13;96.18;;;36.80;;
61017;SDS011;48171;51.550;5.434;2023-02-15T09:22:38;105.03;;;37.88;;
61017;SDS011;48171;51.550;5.434;2023-02-15T09:25:04;102.78;;;39.22;;
61017;SDS011;48171;51.550;5.434;2023-02-15T09:27:29;105.20;;;38.13;;
61017;SDS011;48171;51.550;5.434;2023-02-15T09:29:55;103.75;;;38.00;;
61017;SDS011;48171;51.550;5.434;2023-02-15T09:32:20;108.57;;;39.88;;
61017;SDS011;48171;51.550;5.434;2023-02-15T09:34:47;106.25;;;40.53;;
61017;SDS011;48171;51.550;5.434;2023-02-15T09:37:12;110.35;;;41.13;;
61017;SDS011;48171;51.550;5.434;2023-02-15T09:39:38;106.95;;;41.33;;
61017;SDS011;48171;51.550;5.434;2023-02-15T09:53:42;100.90;;;37.35;;
61017;SDS011;48171;51.550;5.434;2023-02-15T09:58:43;98.50;;;37.00;;
61017;SDS011;48171;51.550;5.434;2023-02-15T10:01:24;110.03;;;39.03;;
61017;SDS011;48171;51.550;5.434;2023-02-15T10:07:00;89.88;;;34.35;;
61017;SDS011;48171;51.550;5.434;2023-02-15T10:15:23;90.22;;;33.03;;
61017;SDS011;48171;51.550;5.434;2023-02-15T10:23:49;95.68;;;36.55;;
61017;SDS011;48171;51.550;5.434;2023-02-15T10:26:18;94.35;;;33.05;;
61017;SDS011;48171;51.550;5.434;2023-02-15T10:28:50;98.70;;;35.13;;
61017;SDS011;48171;51.550;5.434;2023-02-15T10:34:25;99.68;;;32.92;;
61017;SDS011;48171;51.550;5.434;2023-02-15T10:40:08;82.13;;;31.17;;
61017;SDS011;48171;51.550;5.434;2023-02-15T10:48:10;82.00;;;30.92;;
61017;SDS011;48171;51.550;5.434;2023-02-15T10:50:46;82.13;;;32.30;;
61017;SDS011;48171;51.550;5.434;2023-02-15T11:06:59;79.20;;;29.92;;
61017;SDS011;48171;51.550;5.434;2023-02-15T11:09:38;81.75;;;29.92;;
61017;SDS011;48171;51.550;5.434;2023-02-15T11:12:08;78.43;;;29.85;;
61017;SDS011;48171;51.550;5.434;2023-02-15T11:14:39;74.43;;;28.85;;
61017;SDS011;48171;51.550;5.434;2023-02-15T11:17:15;75.18;;;28.83;;
61017;SDS011;48171;51.550;5.434;2023-02-15T11:19:55;69.65;;;26.75;;
61017;SDS011;48171;51.550;5.434;2023-02-15T11:22:27;70.18;;;27.08;;
61017;SDS011;48171;51.550;5.434;2023-02-15T11:24:54;68.57;;;26.67;;
61017;SDS011;48171;51.550;5.434;2023-02-15T11:27:32;63.55;;;26.98;;
61017;SDS011;48171;51.550;5.434;2023-02-15T11:32:45;66.07;;;26.83;;
61017;SDS011;48171;51.550;5.434;2023-02-15T11:37:40;69.53;;;27.77;;
61017;SDS011;48171;51.550;5.434;2023-02-15T11:40:21;67.35;;;27.88;;
61017;SDS011;48171;51.550;5.434;2023-02-15T11:42:51;70.30;;;27.98;;
61017;SDS011;48171;51.550;5.434;2023-02-15T11:47:47;72.97;;;27.70;;
61017;SDS011;48171;51.550;5.434;2023-02-15T11:50:17;73.03;;;27.85;;
61017;SDS011;48171;51.550;5.434;2023-02-15T11:52:47;67.40;;;26.45;;
61017;SDS011;48171;51.550;5.434;2023-02-15T11:55:24;76.97;;;27.70;;
61017;SDS011;48171;51.550;5.434;2023-02-15T11:57:52;72.63;;;28.77;;
61017;SDS011;48171;51.550;5.434;2023-02-15T12:00:27;71.40;;;26.92;;
61017;SDS011;48171;51.550;5.434;2023-02-15T12:03:02;68.28;;;29.02;;
61017;SDS011;48171;51.550;5.434;2023-02-15T12:05:34;73.22;;;28.15;;
61017;SDS011;48171;51.550;5.434;2023-02-15T12:08:09;73.78;;;27.77;;
61017;SDS011;48171;51.550;5.434;2023-02-15T12:10:41;68.22;;;27.50;;
61017;SDS011;48171;51.550;5.434;2023-02-15T12:13:19;69.03;;;28.00;;
61017;SDS011;48171;51.550;5.434;2023-02-15T12:15:50;69.90;;;28.08;;
61017;SDS011;48171;51.550;5.434;2023-02-15T12:21:10;73.28;;;29.20;;
61017;SDS011;48171;51.550;5.434;2023-02-15T12:23:43;68.20;;;28.15;;
61017;SDS011;48171;51.550;5.434;2023-02-15T12:26:13;72.25;;;27.58;;
61017;SDS011;48171;51.550;5.434;2023-02-15T12:28:40;72.25;;;29.02;;
61017;SDS011;48171;51.550;5.434;2023-02-15T12:31:17;70.90;;;28.60;;
61017;SDS011;48171;51.550;5.434;2023-02-15T12:33:46;70.15;;;29.77;;
61017;SDS011;48171;51.550;5.434;2023-02-15T12:36:18;76.25;;;28.00;;
61017;SDS011;48171;51.550;5.434;2023-02-15T12:39:04;61.42;;;27.08;;
61017;SDS011;48171;51.550;5.434;2023-02-15T12:44:21;74.35;;;28.70;;
61017;SDS011;48171;51.550;5.434;2023-02-15T12:47:33;73.15;;;27.85;;
61017;SDS011;48171;51.550;5.434;2023-02-15T12:49:42;75.47;;;29.23;;
61017;SDS011;48171;51.550;5.434;2023-02-15T12:52:23;65.60;;;27.85;;
61017;SDS011;48171;51.550;5.434;2023-02-15T12:54:50;72.45;;;28.85;;
61017;SDS011;48171;51.550;5.434;2023-02-15T12:59:58;68.63;;;28.65;;
61017;SDS011;48171;51.550;5.434;2023-02-15T13:02:27;74.53;;;30.02;;
61017;SDS011;48171;51.550;5.434;2023-02-15T13:04:55;73.97;;;28.10;;
61017;SDS011;48171;51.550;5.434;2023-02-15T13:07:23;72.70;;;28.08;;
61017;SDS011;48171;51.550;5.434;2023-02-15T13:09:54;73.25;;;29.77;;
61017;SDS011;48171;51.550;5.434;2023-02-15T13:12:23;71.35;;;29.13;;
61017;SDS011;48171;51.550;5.434;2023-02-15T13:15:01;74.82;;;30.25;;
61017;SDS011;48171;51.550;5.434;2023-02-15T13:17:30;69.00;;;28.75;;
61017;SDS011;48171;51.550;5.434;2023-02-15T13:20:03;77.80;;;28.05;;
61017;SDS011;48171;51.550;5.434;2023-02-15T13:22:38;69.15;;;28.15;;
61017;SDS011;48171;51.550;5.434;2023-02-15T13:25:24;74.50;;;29.60;;
61017;SDS011;48171;51.550;5.434;2023-02-15T13:27:54;64.15;;;25.92;;
61017;SDS011;48171;51.550;5.434;2023-02-15T13:30:27;67.97;;;27.08;;
61017;SDS011;48171;51.550;5.434;2023-02-15T13:33:01;65.80;;;28.65;;
61017;SDS011;48171;51.550;5.434;2023-02-15T13:35:39;73.97;;;28.25;;
61017;SDS011;48171;51.550;5.434;2023-02-15T13:40:48;68.05;;;26.92;;
61017;SDS011;48171;51.550;5.434;2023-02-15T14:07:22;76.50;;;29.33;;
61017;SDS011;48171;51.550;5.434;2023-02-15T14:21:00;69.57;;;28.55;;
61017;SDS011;48171;51.550;5.434;2023-02-15T14:28:51;70.15;;;28.25;;
61017;SDS011;48171;51.550;5.434;2023-02-15T14:31:39;69.53;;;27.17;;
61017;SDS011;48171;51.550;5.434;2023-02-15T14:34:20;70.82;;;30.23;;
61017;SDS011;48171;51.550;5.434;2023-02-15T14:36:52;68.20;;;30.08;;
61017;SDS011;48171;51.550;5.434;2023-02-15T14:45:05;69.00;;;29.58;;
61017;SDS011;48171;51.550;5.434;2023-02-15T14:47:48;71.78;;;29.55;;
61017;SDS011;48171;51.550;5.434;2023-02-15T15:01:17;72.10;;;28.75;;
61017;SDS011;48171;51.550;5.434;2023-02-15T15:04:01;72.43;;;28.38;;
61017;SDS011;48171;51.550;5.434;2023-02-15T15:06:34;70.82;;;28.50;;
61017;SDS011;48171;51.550;5.434;2023-02-15T15:14:51;66.45;;;26.30;;
61017;SDS011;48171;51.550;5.434;2023-02-15T15:22:26;66.72;;;29.13;;
61017;SDS011;48171;51.550;5.434;2023-02-15T15:43:24;62.08;;;27.20;;
61017;SDS011;48171;51.550;5.434;2023-02-15T15:49:20;64.45;;;26.90;;
61017;SDS011;48171;51.550;5.434;2023-02-15T15:51:49;64.50;;;26.80;;
61017;SDS011;48171;51.550;5.434;2023-02-15T15:54:18;74.88;;;28.15;;
61017;SDS011;48171;51.550;5.434;2023-02-15T15:56:47;62.00;;;25.98;;
61017;SDS011;48171;51.550;5.434;2023-02-15T15:59:26;86.55;;;28.60;;
61017;SDS011;48171;51.550;5.434;2023-02-15T16:01:54;155.57;;;32.17;;
61017;SDS011;48171;51.550;5.434;2023-02-15T16:04:24;126.25;;;31.95;;
61017;SDS011;48171;51.550;5.434;2023-02-15T16:06:51;193.93;;;36.92;;
61017;SDS011;48171;51.550;5.434;2023-02-15T16:09:25;257.45;;;40.15;;
61017;SDS011;48171;51.550;5.434;2023-02-15T16:11:52;76.82;;;29.55;;
61017;SDS011;48171;51.550;5.434;2023-02-15T16:14:36;210.13;;;38.05;;
61017;SDS011;48171;51.550;5.434;2023-02-15T16:17:05;126.18;;;32.28;;
61017;SDS011;48171;51.550;5.434;2023-02-15T16:19:41;107.20;;;30.45;;
61017;SDS011;48171;51.550;5.434;2023-02-15T16:22:11;128.23;;;30.80;;
61017;SDS011;48171;51.550;5.434;2023-02-15T16:27:20;93.68;;;30.38;;
61017;SDS011;48171;51.550;5.434;2023-02-15T16:29:56;82.07;;;27.75;;
61017;SDS011;48171;51.550;5.434;2023-02-15T16:32:22;75.10;;;27.98;;
61017;SDS011;48171;51.550;5.434;2023-02-15T16:34:59;74.15;;;28.77;;
61017;SDS011;48171;51.550;5.434;2023-02-15T16:37:27;70.13;;;27.55;;
61017;SDS011;48171;51.550;5.434;2023-02-15T16:42:22;74.45;;;26.23;;
61017;SDS011;48171;51.550;5.434;2023-02-15T16:44:54;69.78;;;26.25;;
61017;SDS011;48171;51.550;5.434;2023-02-15T16:47:29;104.70;;;30.60;;
61017;SDS011;48171;51.550;5.434;2023-02-15T16:49:59;84.63;;;27.85;;
61017;SDS011;48171;51.550;5.434;2023-02-15T16:52:28;83.55;;;27.10;;
61017;SDS011;48171;51.550;5.434;2023-02-15T16:54:55;70.30;;;27.33;;
61017;SDS011;48171;51.550;5.434;2023-02-15T16:57:24;76.07;;;27.45;;
61017;SDS011;48171;51.550;5.434;2023-02-15T17:00:03;68.35;;;28.98;;
61017;SDS011;48171;51.550;5.434;2023-02-15T17:02:32;75.72;;;28.13;;
61017;SDS011;48171;51.550;5.434;2023-02-15T17:05:20;74.70;;;28.15;;
61017;SDS011;48171;51.550;5.434;2023-02-15T17:07:50;73.53;;;27.83;;
61017;SDS011;48171;51.550;5.434;2023-02-15T17:13:17;69.03;;;27.92;;
61017;SDS011;48171;51.550;5.434;2023-02-15T17:18:23;72.72;;;27.65;;
61017;SDS011;48171;51.550;5.434;2023-02-15T17:20:50;69.20;;;26.80;;
61017;SDS011;48171;51.550;5.434;2023-02-15T17:23:30;64.95;;;26.80;;
61017;SDS011;48171;51.550;5.434;2023-02-15T17:26:00;67.88;;;27.10;;
61017;SDS011;48171;51.550;5.434;2023-02-15T17:28:35;70.15;;;27.55;;
61017;SDS011;48171;51.550;5.434;2023-02-15T17:31:01;65.45;;;26.45;;
61017;SDS011;48171;51.550;5.434;2023-02-15T17:36:07;73.68;;;26.98;;
61017;SDS011;48171;51.550;5.434;2023-02-15T17:38:40;70.18;;;28.05;;
61017;SDS011;48171;51.550;5.434;2023-02-15T17:41:23;72.15;;;29.15;;
61017;SDS011;48171;51.550;5.434;2023-02-15T17:43:49;71.88;;;29.10;;
61017;SDS011;48171;51.550;5.434;2023-02-15T17:46:15;71.00;;;28.33;;
61017;SDS011;48171;51.550;5.434;2023-02-15T17:48:43;74.28;;;29.27;;
61017;SDS011;48171;51.550;5.434;2023-02-15T17:51:12;69.22;;;27.55;;
61017;SDS011;48171;51.550;5.434;2023-02-15T17:53:40;63.80;;;27.70;;
61017;SDS011;48171;51.550;5.434;2023-02-15T17:56:26;75.22;;;28.00;;